Station: Tidbinbilla

  Atmospheric Gas Attenuation - ITU Rec 676-11   --------------- db/100km ---------------
Date Time Temp RH % AH g/m3 Dew Point Wind Direction Speed kph Gust kph Barometer mB Rainfall Since 9am 24GHz 47GHz 76GHz 122GHz 134GHz 241GHz
22 21:50 7.1 66 5.15 1.3 15 19 1013.1 0 12.5 22.2 29.1 75.9 60.6 205.1
22 21:40 7 67 5.19 1.3 17 19 1013.1 0 12.6 22.3 29.3 76.4 61.2 207.1
22 21:30 7.1 67 5.23 1.4 19 20 1013.1 0 12.7 22.3 29.5 76.7 61.6 208.6
22 21:20 7.2 67 5.26 1.5 19 24 1013.1 0 12.7 22.4 29.5 77.0 61.9 209.7
22 21:10 7.2 68 5.34 1.7 19 22 1013.1 0 12.9 22.5 29.8 77.8 62.9 213.3
22 21:00 7.3 69 5.45 2 19 22 1013.1 0 13.1 22.6 30.2 78.8 64.2 217.9
22 20:50 7.3 69 5.45 2.1 19 22 1013.1 0 13.1 22.6 30.2 78.8 64.2 217.9
22 20:40 7.3 69 5.45 2 19 22 1013.1 0 13.1 22.6 30.2 78.8 64.2 217.9
22 20:30 7.4 69 5.49 2.2 17 20 1013.1 0 13.2 22.7 30.3 79.1 64.7 219.4
22 20:20 7.5 68 5.45 2 20 24 1013.1 0 13.1 22.6 30.1 78.6 64.1 217.4
22 20:10 7.7 68 5.52 2.2 22 30 1013.1 0 13.3 22.6 30.3 79.1 64.8 219.9
22 20:00 7.7 67 5.44 2 24 32 1013.1 0 13.1 22.5 30.0 78.3 63.8 216.4
22 19:50 7.1 72 5.62 2.5 19 24 1013.1 0 13.5 23.0 31.0 80.8 66.6 226.1
22 19:40 6.9 75 5.78 2.8 17 19 1013.1 0 13.8 23.3 31.7 82.7 68.8 233.9
22 19:30 6.9 77 5.93 3.1 15 17 1013.1 0 14.2 23.5 32.3 84.2 70.8 240.8
22 19:20 6.7 78 5.93 3.2 15 17 1013.1 0 14.2 23.6 32.3 84.5 71.0 241.4
22 19:10 6.9 78 6.01 3.4 17 19 1013.1 0 14.3 23.6 32.6 85.1 71.8 244.5
22 19:00 7.2 77 6.05 3.4 19 26 1013.1 0 14.4 23.6 32.6 85.2 72.1 245.4
22 18:50 7.2 76 5.97 3.2 19 22 1013.1 0 14.2 23.5 32.3 84.3 71.0 241.7
22 18:40 7.4 73 5.81 2.9 20 24 1013.1 0 13.9 23.2 31.6 82.4 68.8 233.8
22 18:30 7.6 72 5.8 3 19 24 1013.1 0 13.9 23.1 31.5 82.1 68.5 232.8
22 18:20 7.7 70 5.68 2.7 20 24 1013.1 0 13.6 22.9 31.0 80.8 66.8 227.1
22 18:10 7.5 71 5.69 2.7 17 19 1013.1 0 13.6 23.0 31.1 81.1 67.1 228.1
22 18:00 7.6 70 5.64 2.5 19 22 1013.1 0 13.5 22.9 30.8 80.5 66.4 225.6
22 17:50 7.3 72 5.69 2.7 17 19 1013.1 0 13.6 23.0 31.2 81.3 67.3 228.7
22 17:40 7.1 75 5.85 3 15 19 1013.1 0 14.0 23.3 31.9 83.2 69.6 236.5
22 17:30 7.4 76 6.05 3.4 17 19 1013.1 0 14.4 23.6 32.5 85.0 71.9 244.8
22 17:20 7.7 75 6.08 3.6 20 28 1013.1 0 14.5 23.5 32.5 85.0 72.0 245.2
22 17:10 7.8 74 6.04 3.5 22 28 1013.1 0 14.4 23.4 32.3 84.4 71.4 243.1
22 17:00 7.8 75 6.12 3.7 19 26 1013.1 0 14.5 23.6 32.6 85.3 72.4 246.7
22 16:50 7.9 73 6 3.4 17 24 1013.1 0 14.3 23.3 32.1 83.9 70.8 241.0
22 16:40 8.1 74 6.16 3.7 15 20 1013.1 0 14.6 23.5 32.7 85.4 72.7 247.6
22 16:30 8.5 72 6.15 3.7 17 22 1013.1 0 14.6 23.4 32.5 84.8 72.2 245.9
22 16:20 9.6 69 6.32 4.3 15 19 1013.1 0 14.9 23.4 32.7 85.4 73.3 250.1
22 16:10 10.4 65 6.27 4.2 15 19 1013.1 0 14.8 23.1 32.2 84.1 72.0 245.4
22 16:00 10.7 65 6.39 4.5 11 15 1013.1 0 15.0 23.2 32.5 85.0 73.2 249.8
22 15:50 11.2 64 6.49 4.6 11 19 1013.1 0 15.2 23.3 32.7 85.5 74.0 252.7
22 15:40 11.3 61 6.22 4.2 9 13 1013.1 0 14.6 22.8 31.6 82.6 70.5 240.5
22 15:30 10.8 63 6.23 4 9 15 1013.1 0 14.7 23.0 31.9 83.2 71.1 242.4
22 15:20 10.6 60 5.86 3.2 11 17 1013.1 0 13.9 22.4 30.5 79.7 66.7 226.8
22 15:10 12.2 56 6.04 3.7 13 20 1013.1 0 14.2 22.3 30.6 79.9 67.5 230.0
22 15:00 13.1 54 6.16 4 7 11 1013.1 0 14.4 22.3 30.7 80.2 68.2 232.6
22 14:50 12.3 54 5.86 3.3 9 13 1013.1 0 13.8 22.0 29.9 78.0 65.2 222.1
22 14:40 11.9 58 6.14 3.9 11 17 1013.1 0 14.4 22.6 31.1 81.2 69.0 235.2
22 14:30 11.6 60 6.24 4.2 9 19 1013.1 0 14.6 22.8 31.6 82.5 70.5 240.4
22 14:20 11.6 57 5.93 3.5 9 11 1013.1 0 14.0 22.3 30.4 79.4 66.7 227.0
22 14:10 10.1 62 5.86 3.1 11 17 1013.1 0 13.9 22.6 30.7 80.2 67.1 228.2
22 14:00 10.2 62 5.9 3.3 9 15 1013.1 0 14.0 22.6 30.8 80.5 67.5 229.7
22 13:50 10.1 62 5.86 3.3 13 17 1013.1 0 13.9 22.6 30.7 80.2 67.1 228.2
22 13:40 10.2 62 5.9 3.4 13 15 1013.1 0 14.0 22.6 30.8 80.5 67.5 229.7
22 13:30 11 60 6.01 3.6 11 17 1013.1 0 14.2 22.6 31.0 80.8 68.2 232.2
22 13:20 11.2 64 6.49 4.6 4 9 1013.1 0 15.2 23.3 32.7 85.5 74.0 252.7
22 13:10 9.9 69 6.44 4.6 6 7 1013.1 0 15.1 23.5 33.0 86.3 74.6 254.6
22 13:00 10.2 66 6.28 4.2 4 6 1013.1 0 14.8 23.2 32.3 84.4 72.3 246.5
22 12:50 9.9 72 6.72 5.1 2 4 1013.1 0 15.7 24.0 34.1 89.3 78.2 267.2
22 12:40 10 72 6.77 5.2 6 7 1013.1 0 15.8 24.0 34.3 89.7 78.7 269.2
22 12:30 9.9 75 7 5.8 2 6 1013.1 0 16.3 24.4 35.2 92.2 81.9 280.0
22 12:20 9.6 76 6.96 5.7 4 6 1013.1 0 16.3 24.4 35.2 92.2 81.6 279.2
22 12:10 9.3 76 6.83 5.3 4 7 1013.1 0 16.0 24.3 34.8 91.1 80.2 274.3
22 12:00 9.3 79 7.1 5.8 6 7 1013.1 0 16.6 24.7 35.9 94.0 83.8 286.8
22 11:50 9 79 6.97 5.6 6 7 1013.1 0 16.3 24.6 35.5 93.0 82.4 281.8
22 11:40 8.4 85 7.21 6 7 7 1013.1 0 16.9 25.2 36.8 96.3 86.3 295.3
22 11:30 8.2 87 7.29 6.2 7 11 1013.1 0 17.0 25.4 37.2 97.4 87.6 299.9
22 11:20 8.2 88 7.37 6.3 6 7 1013.1 0 17.2 25.5 37.5 98.3 88.7 303.7
22 11:10 8.3 86 7.25 6.1 7 9 1013.1 0 16.9 25.3 37.0 96.9 86.9 297.6
22 11:00 8.3 88 7.42 6.5 9 13 1013.1 0 17.3 25.5 37.7 98.7 89.2 305.7
22 10:50 8.1 88 7.33 6.2 7 11 1013.1 0 17.1 25.5 37.4 98.0 88.2 302.1
22 10:40 7.7 88 7.14 5.9 9 11 1013.1 0 16.7 25.2 36.8 96.4 86.1 294.6
22 10:30 7.6 86 6.93 5.4 11 15 1013.1 0 16.3 24.9 36.0 94.2 83.4 285.0
22 10:20 7.6 88 7.09 5.8 7 15 1013.1 0 16.6 25.2 36.6 96.0 85.5 292.6
22 10:10 7.8 88 7.18 5.9 7 9 1013.1 0 16.8 25.3 36.9 96.7 86.5 296.1
22 10:00 7.4 87 6.92 5.4 6 7 1013.1 0 16.3 25.0 36.0 94.3 83.5 285.3
22 09:50 7 90 6.98 5.5 7 11 1013.1 0 16.4 25.2 36.5 95.5 84.7 289.6
22 09:40 7 89 6.9 5.3 7 11 1013.1 0 16.2 25.0 36.1 94.6 83.6 285.8
22 09:30 7 86 6.67 4.9 7 11 1013.1 0 15.7 24.7 35.2 92.1 80.5 274.9
22 09:20 7 87 6.74 5 7 9 1013.1 0 15.9 24.8 35.5 92.8 81.4 278.2
22 09:10 7.1 86 6.71 5 7 11 1013.1 0 15.8 24.7 35.3 92.4 80.9 276.4
22 09:00 7.1 83 6.48 4.5 6 7 1013.1 0 15.3 24.3 34.4 89.9 77.9 265.6
22 08:50 6.6 88 6.65 4.7 6 9 1013.1 0 15.7 24.7 35.3 92.3 80.7 275.4
22 08:40 6.3 88 6.52 4.4 4 9 1013.1 0 15.5 24.6 34.9 91.3 79.2 270.2
22 08:30 6.5 84 6.3 4 6 9 1013.1 0 15.0 24.2 33.9 88.6 76.1 259.2
22 08:20 5.9 88 6.35 4.1 7 9 1013.1 0 15.1 24.4 34.4 89.9 77.3 263.6
22 08:10 6 88 6.39 4.1 2 6 1013.1 0 15.2 24.5 34.5 90.2 77.8 265.1
22 08:00 6.5 84 6.3 4 6 6 1013.1 0 15.0 24.2 33.9 88.6 76.1 259.2
22 07:50 6.7 79 6.01 3.4 4 6 1013.1 0 14.3 23.7 32.7 85.3 72.0 245.1
22 07:40 6.6 80 6.04 3.4 4 6 1013.1 0 14.4 23.8 32.8 85.7 72.5 246.8
22 07:30 6.5 80 6 3.3 2 4 1013.1 0 14.3 23.7 32.7 85.4 72.1 245.3
22 07:20 6.3 81 6 3.3 2 6 1013.1 0 14.3 23.8 32.8 85.6 72.3 245.9
22 07:10 6.1 82 5.99 3.2 2 6 1013.1 0 14.3 23.8 32.8 85.7 72.3 246.0
22 07:00 6 83 6.03 3.4 4 6 1013.1 0 14.4 23.9 33.0 86.3 72.9 248.2
22 06:50 6.1 82 5.99 3.2 4 9 1013.1 0 14.3 23.8 32.8 85.7 72.3 246.0
22 06:40 5.8 83 5.95 3.1 4 7 1013.1 0 14.2 23.8 32.8 85.6 72.1 245.1
22 06:30 5.6 84 5.94 3.1 6 11 1013.1 0 14.2 23.9 32.8 85.8 72.1 245.3
22 06:20 5.3 85 5.9 3 4 9 1013.1 0 14.2 23.9 32.8 85.6 71.9 244.3
22 06:10 5.6 83 5.87 2.9 7 13 1013.1 0 14.1 23.7 32.5 85.0 71.2 242.0
22 06:00 5.3 84 5.83 2.9 2 7 1013.1 0 14.0 23.8 32.5 84.9 70.9 241.1
22 05:50 5.4 84 5.86 3 4 7 1013.1 0 14.1 23.8 32.6 85.1 71.2 242.2
22 05:40 5.7 82 5.84 2.9 6 9 1013.1 0 14.0 23.7 32.4 84.6 70.7 240.3
22 05:30 5.8 80 5.73 2.6 4 11 1013.1 0 13.8 23.5 31.9 83.3 69.2 234.9
22 05:20 5.3 82 5.69 2.5 4 7 1013.1 0 13.7 23.5 31.9 83.4 69.1 234.6

Last Refresh: 23-Jul-2024 07:45:20

Bureau of Meteorology